sensor_id;sensor_type;location;lat;lon;timestamp;P1;durP1;ratioP1;P2;durP2;ratioP2
31238;SDS011;17871;31.584;74.450;2022-07-29T00:01:41;77.30;;;32.58;;
31238;SDS011;17871;31.584;74.450;2022-07-29T00:04:11;70.85;;;32.35;;
31238;SDS011;17871;31.584;74.450;2022-07-29T00:06:41;67.75;;;30.63;;
31238;SDS011;17871;31.584;74.450;2022-07-29T00:09:10;62.80;;;29.08;;
31238;SDS011;17871;31.584;74.450;2022-07-29T00:11:39;61.30;;;29.15;;
31238;SDS011;17871;31.584;74.450;2022-07-29T00:14:08;56.95;;;26.60;;
31238;SDS011;17871;31.584;74.450;2022-07-29T00:16:38;66.53;;;30.58;;
31238;SDS011;17871;31.584;74.450;2022-07-29T00:19:07;64.90;;;29.23;;
31238;SDS011;17871;31.584;74.450;2022-07-29T00:21:36;64.95;;;29.60;;
31238;SDS011;17871;31.584;74.450;2022-07-29T00:24:06;67.80;;;30.98;;
31238;SDS011;17871;31.584;74.450;2022-07-29T00:26:35;66.45;;;31.50;;
31238;SDS011;17871;31.584;74.450;2022-07-29T00:29:04;66.03;;;32.35;;
31238;SDS011;17871;31.584;74.450;2022-07-29T00:31:53;69.50;;;32.92;;
31238;SDS011;17871;31.584;74.450;2022-07-29T00:34:23;72.43;;;33.38;;
31238;SDS011;17871;31.584;74.450;2022-07-29T00:37:10;65.10;;;30.45;;
31238;SDS011;17871;31.584;74.450;2022-07-29T00:39:40;73.55;;;31.65;;
31238;SDS011;17871;31.584;74.450;2022-07-29T00:42:09;71.25;;;32.20;;
31238;SDS011;17871;31.584;74.450;2022-07-29T00:44:39;72.93;;;31.02;;
31238;SDS011;17871;31.584;74.450;2022-07-29T00:47:09;71.75;;;31.75;;
31238;SDS011;17871;31.584;74.450;2022-07-29T00:49:40;71.32;;;31.60;;
31238;SDS011;17871;31.584;74.450;2022-07-29T00:52:10;71.57;;;30.88;;
31238;SDS011;17871;31.584;74.450;2022-07-29T00:54:43;69.47;;;31.30;;
31238;SDS011;17871;31.584;74.450;2022-07-29T00:57:12;64.60;;;29.98;;
31238;SDS011;17871;31.584;74.450;2022-07-29T00:59:41;67.28;;;30.42;;
31238;SDS011;17871;31.584;74.450;2022-07-29T01:02:11;72.03;;;32.10;;
31238;SDS011;17871;31.584;74.450;2022-07-29T01:04:40;70.72;;;31.95;;
31238;SDS011;17871;31.584;74.450;2022-07-29T01:07:09;75.25;;;32.80;;
31238;SDS011;17871;31.584;74.450;2022-07-29T01:09:40;77.20;;;33.78;;
31238;SDS011;17871;31.584;74.450;2022-07-29T01:12:21;83.32;;;37.05;;
31238;SDS011;17871;31.584;74.450;2022-07-29T01:14:55;66.68;;;33.70;;
31238;SDS011;17871;31.584;74.450;2022-07-29T01:17:26;64.00;;;32.42;;
31238;SDS011;17871;31.584;74.450;2022-07-29T01:29:30;59.92;;;29.23;;
31238;SDS011;17871;31.584;74.450;2022-07-29T01:32:14;70.30;;;29.85;;
31238;SDS011;17871;31.584;74.450;2022-07-29T01:40:49;59.55;;;27.35;;
31238;SDS011;17871;31.584;74.450;2022-07-29T01:45:57;64.53;;;27.83;;
31238;SDS011;17871;31.584;74.450;2022-07-29T01:51:25;56.72;;;27.13;;
31238;SDS011;17871;31.584;74.450;2022-07-29T01:54:06;62.35;;;29.42;;
31238;SDS011;17871;31.584;74.450;2022-07-29T01:56:42;58.67;;;27.23;;
31238;SDS011;17871;31.584;74.450;2022-07-29T01:59:15;52.08;;;25.63;;
31238;SDS011;17871;31.584;74.450;2022-07-29T02:01:47;51.10;;;27.13;;
31238;SDS011;17871;31.584;74.450;2022-07-29T02:04:20;48.92;;;25.02;;
31238;SDS011;17871;31.584;74.450;2022-07-29T02:07:01;49.78;;;26.15;;
31238;SDS011;17871;31.584;74.450;2022-07-29T02:09:34;49.67;;;25.83;;
31238;SDS011;17871;31.584;74.450;2022-07-29T02:12:04;53.05;;;27.05;;
31238;SDS011;17871;31.584;74.450;2022-07-29T02:14:40;49.03;;;24.73;;
31238;SDS011;17871;31.584;74.450;2022-07-29T02:17:16;47.72;;;25.27;;
31238;SDS011;17871;31.584;74.450;2022-07-29T02:19:53;46.90;;;25.27;;
31238;SDS011;17871;31.584;74.450;2022-07-29T02:22:26;50.85;;;27.42;;
31238;SDS011;17871;31.584;74.450;2022-07-29T02:24:58;49.75;;;27.65;;
31238;SDS011;17871;31.584;74.450;2022-07-29T02:27:29;50.70;;;26.35;;
31238;SDS011;17871;31.584;74.450;2022-07-29T02:30:03;51.95;;;27.63;;
31238;SDS011;17871;31.584;74.450;2022-07-29T02:32:34;49.33;;;26.77;;
31238;SDS011;17871;31.584;74.450;2022-07-29T02:35:06;47.20;;;25.90;;
31238;SDS011;17871;31.584;74.450;2022-07-29T02:37:37;82.47;;;25.03;;
31238;SDS011;17871;31.584;74.450;2022-07-29T02:40:09;55.45;;;26.60;;
31238;SDS011;17871;31.584;74.450;2022-07-29T02:42:42;41.33;;;23.65;;
31238;SDS011;17871;31.584;74.450;2022-07-29T02:45:15;52.35;;;23.40;;
31238;SDS011;17871;31.584;74.450;2022-07-29T02:47:46;42.90;;;23.35;;
31238;SDS011;17871;31.584;74.450;2022-07-29T02:52:57;41.05;;;23.88;;
31238;SDS011;17871;31.584;74.450;2022-07-29T02:55:36;46.10;;;24.95;;
31238;SDS011;17871;31.584;74.450;2022-07-29T02:58:20;49.60;;;24.15;;
31238;SDS011;17871;31.584;74.450;2022-07-29T03:00:59;40.70;;;23.63;;
31238;SDS011;17871;31.584;74.450;2022-07-29T03:03:34;48.40;;;22.15;;
31238;SDS011;17871;31.584;74.450;2022-07-29T03:06:06;46.22;;;25.27;;
31238;SDS011;17871;31.584;74.450;2022-07-29T03:08:57;48.70;;;23.10;;
31238;SDS011;17871;31.584;74.450;2022-07-29T03:11:27;44.78;;;23.90;;
31238;SDS011;17871;31.584;74.450;2022-07-29T03:14:17;38.47;;;21.83;;
31238;SDS011;17871;31.584;74.450;2022-07-29T03:16:48;41.90;;;21.98;;
31238;SDS011;17871;31.584;74.450;2022-07-29T03:19:19;40.65;;;20.95;;
31238;SDS011;17871;31.584;74.450;2022-07-29T03:21:48;38.22;;;21.42;;
31238;SDS011;17871;31.584;74.450;2022-07-29T03:24:51;37.08;;;22.38;;
31238;SDS011;17871;31.584;74.450;2022-07-29T03:27:13;43.47;;;22.77;;
31238;SDS011;17871;31.584;74.450;2022-07-29T03:29:42;38.28;;;22.58;;
31238;SDS011;17871;31.584;74.450;2022-07-29T03:32:16;50.78;;;22.45;;
31238;SDS011;17871;31.584;74.450;2022-07-29T03:34:51;41.33;;;22.88;;
31238;SDS011;17871;31.584;74.450;2022-07-29T03:37:20;38.65;;;23.20;;
31238;SDS011;17871;31.584;74.450;2022-07-29T03:39:49;41.65;;;22.40;;
31238;SDS011;17871;31.584;74.450;2022-07-29T03:42:21;37.92;;;22.85;;
31238;SDS011;17871;31.584;74.450;2022-07-29T03:45:02;43.97;;;23.77;;
31238;SDS011;17871;31.584;74.450;2022-07-29T03:47:35;42.33;;;23.00;;
31238;SDS011;17871;31.584;74.450;2022-07-29T03:50:18;41.38;;;21.95;;
31238;SDS011;17871;31.584;74.450;2022-07-29T03:55:20;46.17;;;23.05;;
31238;SDS011;17871;31.584;74.450;2022-07-29T03:57:49;41.38;;;23.45;;
31238;SDS011;17871;31.584;74.450;2022-07-29T04:00:20;43.80;;;23.38;;
31238;SDS011;17871;31.584;74.450;2022-07-29T04:02:52;47.42;;;24.00;;
31238;SDS011;17871;31.584;74.450;2022-07-29T04:05:21;42.70;;;24.27;;
31238;SDS011;17871;31.584;74.450;2022-07-29T04:07:50;42.80;;;23.33;;
31238;SDS011;17871;31.584;74.450;2022-07-29T04:10:19;44.58;;;22.92;;
31238;SDS011;17871;31.584;74.450;2022-07-29T04:12:58;44.80;;;23.70;;
31238;SDS011;17871;31.584;74.450;2022-07-29T04:15:28;39.40;;;22.75;;
31238;SDS011;17871;31.584;74.450;2022-07-29T04:17:58;47.97;;;23.15;;
31238;SDS011;17871;31.584;74.450;2022-07-29T04:20:27;45.05;;;24.30;;
31238;SDS011;17871;31.584;74.450;2022-07-29T04:22:56;44.28;;;25.02;;
31238;SDS011;17871;31.584;74.450;2022-07-29T04:25:26;44.10;;;24.00;;
31238;SDS011;17871;31.584;74.450;2022-07-29T04:27:55;44.25;;;23.63;;
31238;SDS011;17871;31.584;74.450;2022-07-29T04:30:34;43.67;;;22.58;;
31238;SDS011;17871;31.584;74.450;2022-07-29T04:33:05;38.42;;;21.70;;
31238;SDS011;17871;31.584;74.450;2022-07-29T04:35:36;39.83;;;20.08;;
31238;SDS011;17871;31.584;74.450;2022-07-29T04:38:18;34.40;;;20.05;;
31238;SDS011;17871;31.584;74.450;2022-07-29T04:40:47;41.05;;;20.00;;
31238;SDS011;17871;31.584;74.450;2022-07-29T04:43:17;32.60;;;19.30;;
31238;SDS011;17871;31.584;74.450;2022-07-29T04:45:49;42.65;;;19.65;;
31238;SDS011;17871;31.584;74.450;2022-07-29T04:48:19;42.45;;;20.23;;
31238;SDS011;17871;31.584;74.450;2022-07-29T04:50:56;42.85;;;18.95;;
31238;SDS011;17871;31.584;74.450;2022-07-29T04:53:25;35.80;;;21.15;;
31238;SDS011;17871;31.584;74.450;2022-07-29T04:56:13;48.45;;;20.63;;
31238;SDS011;17871;31.584;74.450;2022-07-29T04:58:42;38.17;;;18.92;;
31238;SDS011;17871;31.584;74.450;2022-07-29T05:01:11;37.20;;;19.98;;
31238;SDS011;17871;31.584;74.450;2022-07-29T05:03:40;41.28;;;18.75;;
31238;SDS011;17871;31.584;74.450;2022-07-29T05:06:10;34.50;;;18.90;;
31238;SDS011;17871;31.584;74.450;2022-07-29T05:08:39;35.92;;;20.15;;
31238;SDS011;17871;31.584;74.450;2022-07-29T05:11:08;46.85;;;21.65;;
31238;SDS011;17871;31.584;74.450;2022-07-29T05:13:43;41.30;;;20.35;;
31238;SDS011;17871;31.584;74.450;2022-07-29T05:16:13;41.03;;;21.30;;
31238;SDS011;17871;31.584;74.450;2022-07-29T05:18:43;38.40;;;21.15;;
31238;SDS011;17871;31.584;74.450;2022-07-29T05:21:12;43.33;;;21.85;;
31238;SDS011;17871;31.584;74.450;2022-07-29T05:23:41;38.47;;;21.65;;
31238;SDS011;17871;31.584;74.450;2022-07-29T05:26:10;42.22;;;20.95;;
31238;SDS011;17871;31.584;74.450;2022-07-29T05:28:40;45.20;;;21.52;;
31238;SDS011;17871;31.584;74.450;2022-07-29T05:31:09;43.00;;;22.30;;
31238;SDS011;17871;31.584;74.450;2022-07-29T05:33:55;41.03;;;22.33;;
31238;SDS011;17871;31.584;74.450;2022-07-29T05:36:24;38.80;;;22.33;;
31238;SDS011;17871;31.584;74.450;2022-07-29T05:38:53;46.63;;;22.60;;
31238;SDS011;17871;31.584;74.450;2022-07-29T05:41:22;38.55;;;22.25;;
31238;SDS011;17871;31.584;74.450;2022-07-29T05:43:51;37.50;;;21.40;;
31238;SDS011;17871;31.584;74.450;2022-07-29T05:46:20;38.45;;;21.92;;
31238;SDS011;17871;31.584;74.450;2022-07-29T05:48:49;33.88;;;21.42;;
31238;SDS011;17871;31.584;74.450;2022-07-29T05:51:18;38.08;;;21.52;;
31238;SDS011;17871;31.584;74.450;2022-07-29T05:53:48;40.80;;;20.90;;
31238;SDS011;17871;31.584;74.450;2022-07-29T05:56:17;39.45;;;20.48;;
31238;SDS011;17871;31.584;74.450;2022-07-29T05:58:46;39.00;;;21.45;;
31238;SDS011;17871;31.584;74.450;2022-07-29T06:01:20;35.47;;;20.08;;
31238;SDS011;17871;31.584;74.450;2022-07-29T06:15:59;35.15;;;21.20;;
31238;SDS011;17871;31.584;74.450;2022-07-29T06:18:29;32.45;;;20.48;;
31238;SDS011;17871;31.584;74.450;2022-07-29T06:20:58;35.28;;;20.48;;
31238;SDS011;17871;31.584;74.450;2022-07-29T06:23:27;34.15;;;19.90;;
31238;SDS011;17871;31.584;74.450;2022-07-29T06:25:57;34.58;;;20.85;;
31238;SDS011;17871;31.584;74.450;2022-07-29T06:28:26;36.25;;;20.58;;
31238;SDS011;17871;31.584;74.450;2022-07-29T06:30:56;34.70;;;19.92;;
31238;SDS011;17871;31.584;74.450;2022-07-29T06:33:25;34.60;;;19.85;;
31238;SDS011;17871;31.584;74.450;2022-07-29T06:35:55;34.15;;;19.88;;
31238;SDS011;17871;31.584;74.450;2022-07-29T06:38:25;36.55;;;21.67;;
31238;SDS011;17871;31.584;74.450;2022-07-29T06:41:00;35.13;;;20.27;;
31238;SDS011;17871;31.584;74.450;2022-07-29T06:43:37;38.97;;;19.70;;
31238;SDS011;17871;31.584;74.450;2022-07-29T06:46:21;32.83;;;19.15;;
31238;SDS011;17871;31.584;74.450;2022-07-29T06:48:51;33.17;;;19.42;;
31238;SDS011;17871;31.584;74.450;2022-07-29T06:51:20;35.80;;;19.00;;
31238;SDS011;17871;31.584;74.450;2022-07-29T06:53:51;35.22;;;19.63;;
31238;SDS011;17871;31.584;74.450;2022-07-29T06:56:28;42.40;;;20.70;;
31238;SDS011;17871;31.584;74.450;2022-07-29T06:59:06;37.88;;;19.52;;
31238;SDS011;17871;31.584;74.450;2022-07-29T07:01:38;35.95;;;19.95;;
31238;SDS011;17871;31.584;74.450;2022-07-29T07:04:09;35.88;;;18.95;;
31238;SDS011;17871;31.584;74.450;2022-07-29T07:06:40;33.53;;;19.88;;
31238;SDS011;17871;31.584;74.450;2022-07-29T07:09:09;34.28;;;19.45;;
31238;SDS011;17871;31.584;74.450;2022-07-29T07:11:38;31.80;;;20.00;;
31238;SDS011;17871;31.584;74.450;2022-07-29T07:14:08;27.27;;;17.38;;
31238;SDS011;17871;31.584;74.450;2022-07-29T07:16:37;37.20;;;18.30;;
31238;SDS011;17871;31.584;74.450;2022-07-29T07:19:07;30.95;;;17.02;;
31238;SDS011;17871;31.584;74.450;2022-07-29T07:21:36;28.15;;;14.23;;
31238;SDS011;17871;31.584;74.450;2022-07-29T07:24:05;25.35;;;14.38;;
31238;SDS011;17871;31.584;74.450;2022-07-29T07:26:35;22.33;;;12.15;;
31238;SDS011;17871;31.584;74.450;2022-07-29T07:29:05;20.52;;;12.80;;
31238;SDS011;17871;31.584;74.450;2022-07-29T07:31:35;24.52;;;14.48;;
31238;SDS011;17871;31.584;74.450;2022-07-29T07:34:05;24.63;;;14.57;;
31238;SDS011;17871;31.584;74.450;2022-07-29T07:36:35;27.10;;;17.92;;
31238;SDS011;17871;31.584;74.450;2022-07-29T07:39:05;31.38;;;15.45;;
31238;SDS011;17871;31.584;74.450;2022-07-29T07:41:34;25.80;;;14.77;;
31238;SDS011;17871;31.584;74.450;2022-07-29T07:44:03;19.63;;;13.27;;
31238;SDS011;17871;31.584;74.450;2022-07-29T07:46:33;23.70;;;13.50;;
31238;SDS011;17871;31.584;74.450;2022-07-29T07:49:04;21.20;;;12.70;;
31238;SDS011;17871;31.584;74.450;2022-07-29T07:51:34;23.27;;;12.43;;
31238;SDS011;17871;31.584;74.450;2022-07-29T07:54:03;24.20;;;13.30;;
31238;SDS011;17871;31.584;74.450;2022-07-29T07:56:33;17.27;;;11.13;;
31238;SDS011;17871;31.584;74.450;2022-07-29T07:59:02;23.40;;;12.52;;
31238;SDS011;17871;31.584;74.450;2022-07-29T08:01:32;24.80;;;13.80;;
31238;SDS011;17871;31.584;74.450;2022-07-29T08:04:21;24.85;;;15.30;;
31238;SDS011;17871;31.584;74.450;2022-07-29T08:06:55;22.10;;;14.85;;
31238;SDS011;17871;31.584;74.450;2022-07-29T08:09:25;24.63;;;15.60;;
31238;SDS011;17871;31.584;74.450;2022-07-29T08:11:57;24.55;;;14.60;;
31238;SDS011;17871;31.584;74.450;2022-07-29T08:14:28;30.63;;;15.68;;
31238;SDS011;17871;31.584;74.450;2022-07-29T08:16:57;24.55;;;15.55;;
31238;SDS011;17871;31.584;74.450;2022-07-29T08:19:26;28.02;;;13.73;;
31238;SDS011;17871;31.584;74.450;2022-07-29T08:22:14;22.52;;;12.95;;
31238;SDS011;17871;31.584;74.450;2022-07-29T08:24:43;26.20;;;11.40;;
31238;SDS011;17871;31.584;74.450;2022-07-29T08:27:29;33.85;;;12.02;;
31238;SDS011;17871;31.584;74.450;2022-07-29T08:30:09;25.67;;;12.18;;
31238;SDS011;17871;31.584;74.450;2022-07-29T08:32:40;36.75;;;11.93;;
31238;SDS011;17871;31.584;74.450;2022-07-29T08:35:20;36.78;;;12.75;;
31238;SDS011;17871;31.584;74.450;2022-07-29T08:37:51;37.80;;;12.05;;
31238;SDS011;17871;31.584;74.450;2022-07-29T08:40:21;21.95;;;12.35;;
31238;SDS011;17871;31.584;74.450;2022-07-29T08:42:59;26.10;;;11.90;;
31238;SDS011;17871;31.584;74.450;2022-07-29T08:45:43;23.73;;;12.23;;
31238;SDS011;17871;31.584;74.450;2022-07-29T08:48:18;21.13;;;11.82;;
31238;SDS011;17871;31.584;74.450;2022-07-29T08:50:50;16.40;;;11.07;;
31238;SDS011;17871;31.584;74.450;2022-07-29T08:53:24;20.77;;;11.65;;
31238;SDS011;17871;31.584;74.450;2022-07-29T08:55:55;17.98;;;11.65;;
31238;SDS011;17871;31.584;74.450;2022-07-29T08:58:25;19.40;;;12.55;;
31238;SDS011;17871;31.584;74.450;2022-07-29T09:01:03;19.08;;;11.88;;
31238;SDS011;17871;31.584;74.450;2022-07-29T09:03:38;25.38;;;12.10;;
31238;SDS011;17871;31.584;74.450;2022-07-29T09:06:08;55.92;;;26.83;;
31238;SDS011;17871;31.584;74.450;2022-07-29T09:08:41;65.55;;;36.28;;
31238;SDS011;17871;31.584;74.450;2022-07-29T09:11:11;59.50;;;28.02;;
31238;SDS011;17871;31.584;74.450;2022-07-29T09:13:41;42.97;;;23.92;;
31238;SDS011;17871;31.584;74.450;2022-07-29T09:16:11;62.58;;;31.33;;
31238;SDS011;17871;31.584;74.450;2022-07-29T09:19:01;54.58;;;31.40;;
31238;SDS011;17871;31.584;74.450;2022-07-29T09:21:33;53.70;;;26.90;;
31238;SDS011;17871;31.584;74.450;2022-07-29T09:24:40;44.67;;;28.45;;
31238;SDS011;17871;31.584;74.450;2022-07-29T09:27:17;45.92;;;23.38;;
31238;SDS011;17871;31.584;74.450;2022-07-29T09:29:58;29.58;;;18.48;;
31238;SDS011;17871;31.584;74.450;2022-07-29T09:32:29;26.20;;;13.70;;
31238;SDS011;17871;31.584;74.450;2022-07-29T09:37:49;16.42;;;10.27;;
31238;SDS011;17871;31.584;74.450;2022-07-29T09:40:26;22.08;;;11.50;;
31238;SDS011;17871;31.584;74.450;2022-07-29T09:42:56;22.80;;;12.43;;
31238;SDS011;17871;31.584;74.450;2022-07-29T09:48:22;19.92;;;13.30;;
31238;SDS011;17871;31.584;74.450;2022-07-29T09:50:50;23.10;;;14.85;;
31238;SDS011;17871;31.584;74.450;2022-07-29T09:53:35;23.05;;;15.93;;
31238;SDS011;17871;31.584;74.450;2022-07-29T09:56:05;28.60;;;18.27;;
31238;SDS011;17871;31.584;74.450;2022-07-29T09:58:36;26.80;;;18.73;;
31238;SDS011;17871;31.584;74.450;2022-07-29T10:01:05;30.23;;;18.95;;
31238;SDS011;17871;31.584;74.450;2022-07-29T10:03:52;37.40;;;22.52;;
31238;SDS011;17871;31.584;74.450;2022-07-29T10:06:21;30.08;;;19.05;;
31238;SDS011;17871;31.584;74.450;2022-07-29T10:08:54;30.13;;;18.35;;
31238;SDS011;17871;31.584;74.450;2022-07-29T10:11:23;28.02;;;17.35;;
31238;SDS011;17871;31.584;74.450;2022-07-29T10:14:12;25.65;;;16.83;;
31238;SDS011;17871;31.584;74.450;2022-07-29T10:16:43;23.00;;;14.23;;
31238;SDS011;17871;31.584;74.450;2022-07-29T10:19:12;19.55;;;13.05;;
31238;SDS011;17871;31.584;74.450;2022-07-29T10:21:42;21.15;;;13.68;;
31238;SDS011;17871;31.584;74.450;2022-07-29T10:24:13;20.23;;;13.98;;
31238;SDS011;17871;31.584;74.450;2022-07-29T10:26:45;27.92;;;14.82;;
31238;SDS011;17871;31.584;74.450;2022-07-29T10:29:16;23.98;;;16.02;;
31238;SDS011;17871;31.584;74.450;2022-07-29T10:43:31;27.88;;;16.65;;
31238;SDS011;17871;31.584;74.450;2022-07-29T10:46:04;28.00;;;16.95;;
31238;SDS011;17871;31.584;74.450;2022-07-29T10:48:35;34.95;;;16.63;;
31238;SDS011;17871;31.584;74.450;2022-07-29T10:51:08;25.30;;;16.90;;
31238;SDS011;17871;31.584;74.450;2022-07-29T10:53:51;22.55;;;13.93;;
31238;SDS011;17871;31.584;74.450;2022-07-29T10:56:25;25.27;;;15.38;;
31238;SDS011;17871;31.584;74.450;2022-07-29T11:01:49;38.25;;;20.98;;
31238;SDS011;17871;31.584;74.450;2022-07-29T11:07:16;101.38;;;50.92;;
31238;SDS011;17871;31.584;74.450;2022-07-29T11:10:07;108.15;;;57.08;;
31238;SDS011;17871;31.584;74.450;2022-07-29T11:15:12;111.10;;;58.00;;
31238;SDS011;17871;31.584;74.450;2022-07-29T11:28:50;147.93;;;62.97;;
31238;SDS011;17871;31.584;74.450;2022-07-29T11:31:33;122.57;;;60.60;;
31238;SDS011;17871;31.584;74.450;2022-07-29T11:34:33;102.65;;;56.15;;
31238;SDS011;17871;31.584;74.450;2022-07-29T11:45:07;72.72;;;41.95;;
31238;SDS011;17871;31.584;74.450;2022-07-29T11:48:07;82.35;;;40.88;;
31238;SDS011;17871;31.584;74.450;2022-07-29T11:50:57;79.75;;;42.83;;
31238;SDS011;17871;31.584;74.450;2022-07-29T11:53:27;66.70;;;39.05;;
31238;SDS011;17871;31.584;74.450;2022-07-29T11:55:59;84.03;;;41.63;;
31238;SDS011;17871;31.584;74.450;2022-07-29T11:58:30;83.13;;;44.13;;
31238;SDS011;17871;31.584;74.450;2022-07-29T12:01:04;81.03;;;45.72;;
31238;SDS011;17871;31.584;74.450;2022-07-29T12:03:34;92.28;;;49.85;;
31238;SDS011;17871;31.584;74.450;2022-07-29T12:06:11;85.00;;;50.45;;
31238;SDS011;17871;31.584;74.450;2022-07-29T12:09:09;98.47;;;53.65;;
31238;SDS011;17871;31.584;74.450;2022-07-29T12:11:40;103.25;;;54.97;;
31238;SDS011;17871;31.584;74.450;2022-07-29T12:14:31;95.40;;;52.17;;
31238;SDS011;17871;31.584;74.450;2022-07-29T12:17:01;65.00;;;36.95;;
31238;SDS011;17871;31.584;74.450;2022-07-29T12:19:41;55.38;;;29.70;;
31238;SDS011;17871;31.584;74.450;2022-07-29T12:22:11;39.53;;;22.15;;
31238;SDS011;17871;31.584;74.450;2022-07-29T12:24:43;34.45;;;18.50;;
31238;SDS011;17871;31.584;74.450;2022-07-29T12:27:16;24.63;;;15.25;;
31238;SDS011;17871;31.584;74.450;2022-07-29T12:29:56;24.45;;;12.93;;
31238;SDS011;17871;31.584;74.450;2022-07-29T12:32:59;18.15;;;10.40;;
31238;SDS011;17871;31.584;74.450;2022-07-29T12:35:20;16.70;;;9.90;;
31238;SDS011;17871;31.584;74.450;2022-07-29T12:37:50;21.95;;;10.60;;
31238;SDS011;17871;31.584;74.450;2022-07-29T12:40:21;18.20;;;11.73;;
31238;SDS011;17871;31.584;74.450;2022-07-29T12:43:06;20.60;;;12.00;;
31238;SDS011;17871;31.584;74.450;2022-07-29T12:45:42;18.95;;;11.02;;
31238;SDS011;17871;31.584;74.450;2022-07-29T12:48:15;22.80;;;11.65;;
31238;SDS011;17871;31.584;74.450;2022-07-29T12:50:57;17.80;;;11.03;;
31238;SDS011;17871;31.584;74.450;2022-07-29T12:53:28;15.63;;;9.93;;
31238;SDS011;17871;31.584;74.450;2022-07-29T12:55:58;17.60;;;10.85;;
31238;SDS011;17871;31.584;74.450;2022-07-29T12:58:51;21.83;;;11.55;;
31238;SDS011;17871;31.584;74.450;2022-07-29T13:01:20;15.07;;;9.70;;
31238;SDS011;17871;31.584;74.450;2022-07-29T13:03:54;13.85;;;9.50;;
31238;SDS011;17871;31.584;74.450;2022-07-29T13:06:42;16.17;;;9.25;;
31238;SDS011;17871;31.584;74.450;2022-07-29T13:09:18;17.52;;;9.20;;
31238;SDS011;17871;31.584;74.450;2022-07-29T13:11:51;15.45;;;9.27;;
31238;SDS011;17871;31.584;74.450;2022-07-29T13:14:31;12.90;;;8.52;;
31238;SDS011;17871;31.584;74.450;2022-07-29T13:17:07;13.55;;;8.57;;
31238;SDS011;17871;31.584;74.450;2022-07-29T13:19:37;13.57;;;8.25;;
31238;SDS011;17871;31.584;74.450;2022-07-29T13:22:17;15.68;;;8.15;;
31238;SDS011;17871;31.584;74.450;2022-07-29T13:27:22;15.23;;;9.20;;
31238;SDS011;17871;31.584;74.450;2022-07-29T13:29:56;17.92;;;8.95;;
31238;SDS011;17871;31.584;74.450;2022-07-29T13:32:28;15.10;;;9.13;;
31238;SDS011;17871;31.584;74.450;2022-07-29T13:34:59;13.30;;;8.18;;
31238;SDS011;17871;31.584;74.450;2022-07-29T13:37:32;10.73;;;6.18;;
31238;SDS011;17871;31.584;74.450;2022-07-29T13:40:03;11.65;;;5.38;;
31238;SDS011;17871;31.584;74.450;2022-07-29T13:42:33;9.32;;;5.55;;
31238;SDS011;17871;31.584;74.450;2022-07-29T13:45:02;9.57;;;4.15;;
31238;SDS011;17871;31.584;74.450;2022-07-29T13:47:32;6.53;;;4.00;;
31238;SDS011;17871;31.584;74.450;2022-07-29T13:50:02;7.55;;;3.85;;
31238;SDS011;17871;31.584;74.450;2022-07-29T13:52:33;7.65;;;4.10;;
31238;SDS011;17871;31.584;74.450;2022-07-29T13:55:03;6.63;;;4.97;;
31238;SDS011;17871;31.584;74.450;2022-07-29T13:57:33;9.98;;;4.50;;
31238;SDS011;17871;31.584;74.450;2022-07-29T14:00:02;7.80;;;4.40;;
31238;SDS011;17871;31.584;74.450;2022-07-29T14:02:34;10.10;;;4.30;;
31238;SDS011;17871;31.584;74.450;2022-07-29T14:05:03;8.85;;;4.95;;
31238;SDS011;17871;31.584;74.450;2022-07-29T14:07:35;8.75;;;5.28;;
31238;SDS011;17871;31.584;74.450;2022-07-29T14:10:06;10.80;;;5.18;;
31238;SDS011;17871;31.584;74.450;2022-07-29T14:12:36;9.90;;;6.35;;
31238;SDS011;17871;31.584;74.450;2022-07-29T14:15:06;8.73;;;5.05;;
31238;SDS011;17871;31.584;74.450;2022-07-29T14:17:35;9.35;;;5.13;;
31238;SDS011;17871;31.584;74.450;2022-07-29T14:20:04;8.43;;;4.82;;
31238;SDS011;17871;31.584;74.450;2022-07-29T14:22:34;10.38;;;4.88;;
31238;SDS011;17871;31.584;74.450;2022-07-29T14:25:08;7.90;;;5.20;;
31238;SDS011;17871;31.584;74.450;2022-07-29T14:27:42;11.77;;;4.88;;
31238;SDS011;17871;31.584;74.450;2022-07-29T14:30:12;9.82;;;5.15;;
31238;SDS011;17871;31.584;74.450;2022-07-29T14:32:41;12.95;;;5.65;;
31238;SDS011;17871;31.584;74.450;2022-07-29T14:35:10;8.50;;;5.72;;
31238;SDS011;17871;31.584;74.450;2022-07-29T14:37:39;10.90;;;6.13;;
31238;SDS011;17871;31.584;74.450;2022-07-29T14:40:09;17.73;;;5.90;;
31238;SDS011;17871;31.584;74.450;2022-07-29T14:42:39;9.15;;;5.82;;
31238;SDS011;17871;31.584;74.450;2022-07-29T14:45:08;15.50;;;6.47;;
31238;SDS011;17871;31.584;74.450;2022-07-29T14:47:38;9.05;;;5.35;;
31238;SDS011;17871;31.584;74.450;2022-07-29T14:50:07;9.77;;;5.28;;
31238;SDS011;17871;31.584;74.450;2022-07-29T14:52:37;8.10;;;4.88;;
31238;SDS011;17871;31.584;74.450;2022-07-29T14:55:07;9.48;;;5.22;;
31238;SDS011;17871;31.584;74.450;2022-07-29T14:57:46;7.90;;;4.88;;
31238;SDS011;17871;31.584;74.450;2022-07-29T15:00:16;9.63;;;4.70;;
31238;SDS011;17871;31.584;74.450;2022-07-29T15:02:46;9.38;;;4.35;;
31238;SDS011;17871;31.584;74.450;2022-07-29T15:05:29;7.72;;;4.82;;
31238;SDS011;17871;31.584;74.450;2022-07-29T15:08:00;10.50;;;5.03;;
31238;SDS011;17871;31.584;74.450;2022-07-29T15:10:30;6.05;;;4.35;;
31238;SDS011;17871;31.584;74.450;2022-07-29T15:12:59;9.07;;;3.95;;
31238;SDS011;17871;31.584;74.450;2022-07-29T15:15:29;8.05;;;4.70;;
31238;SDS011;17871;31.584;74.450;2022-07-29T15:17:58;6.53;;;4.35;;
31238;SDS011;17871;31.584;74.450;2022-07-29T15:20:27;9.65;;;3.88;;
31238;SDS011;17871;31.584;74.450;2022-07-29T15:22:56;14.82;;;5.40;;
31238;SDS011;17871;31.584;74.450;2022-07-29T15:25:26;7.97;;;4.82;;
31238;SDS011;17871;31.584;74.450;2022-07-29T15:27:55;14.25;;;7.70;;
31238;SDS011;17871;31.584;74.450;2022-07-29T15:30:29;15.93;;;6.68;;
31238;SDS011;17871;31.584;74.450;2022-07-29T15:33:01;19.55;;;8.23;;
31238;SDS011;17871;31.584;74.450;2022-07-29T15:35:31;14.55;;;5.47;;
31238;SDS011;17871;31.584;74.450;2022-07-29T15:38:07;17.98;;;6.80;;
31238;SDS011;17871;31.584;74.450;2022-07-29T15:40:37;21.52;;;10.07;;
31238;SDS011;17871;31.584;74.450;2022-07-29T15:43:09;14.75;;;8.07;;
31238;SDS011;17871;31.584;74.450;2022-07-29T15:45:38;20.85;;;8.85;;
31238;SDS011;17871;31.584;74.450;2022-07-29T15:48:09;15.02;;;6.95;;
31238;SDS011;17871;31.584;74.450;2022-07-29T15:50:42;15.30;;;7.97;;
31238;SDS011;17871;31.584;74.450;2022-07-29T15:53:13;13.88;;;8.18;;
31238;SDS011;17871;31.584;74.450;2022-07-29T15:55:43;17.63;;;6.38;;
31238;SDS011;17871;31.584;74.450;2022-07-29T15:58:12;14.57;;;6.32;;
31238;SDS011;17871;31.584;74.450;2022-07-29T16:00:42;12.60;;;5.95;;
31238;SDS011;17871;31.584;74.450;2022-07-29T16:03:11;12.10;;;5.13;;
31238;SDS011;17871;31.584;74.450;2022-07-29T16:05:40;10.82;;;5.70;;
31238;SDS011;17871;31.584;74.450;2022-07-29T16:08:09;11.57;;;5.95;;
31238;SDS011;17871;31.584;74.450;2022-07-29T16:10:39;15.82;;;5.97;;
31238;SDS011;17871;31.584;74.450;2022-07-29T16:13:08;15.73;;;5.93;;